FDX31 DAAG-DAOO
Flight info
| Callsign | FDX31 |
|---|---|
| Flight time | 0h 40m |
| Altitude | 26000 |
| Route | CHE1B DAHRA UA411 MOS |
| Aircraft | MD11/H-SDE1E2E3FGHIJ2J3J4J5M1RWXY/LB1D1 |
Departure
| Time | 2026-04-29 17:40 |
|---|---|
| Airport | Houari Boumediene Airport (DAAG) |
Arrival
| Time | 2026-04-29 18:21 |
|---|---|
| Airport | Oran Es-Sénia (Ahmed Ben Bella) International Airport (DAOO) |
| Time | Latitude | Longitude | Altitude | Speed | Heading |
|---|---|---|---|---|---|
| 2026-04-29 17:09 | 36.69616 | 3.21484 | 77 ft | 0 kts | 205° |
| 2026-04-29 17:33 | 36.69601 | 3.21479 | 69 ft | 2 kts | 190° |
| 2026-04-29 17:33 | 36.69585 | 3.21477 | 74 ft | 4 kts | 185° |
| 2026-04-29 17:33 | 36.69508 | 3.21469 | 70 ft | 15 kts | 185° |
| 2026-04-29 17:34 | 36.69431 | 3.21474 | 77 ft | 6 kts | 185° |
| 2026-04-29 17:34 | 36.69387 | 3.21446 | 68 ft | 10 kts | 218° |
| 2026-04-29 17:34 | 36.69340 | 3.21385 | 67 ft | 10 kts | 230° |
| 2026-04-29 17:34 | 36.69302 | 3.21325 | 69 ft | 7 kts | 236° |
| 2026-04-29 17:35 | 36.69277 | 3.21230 | 69 ft | 18 kts | 264° |
| 2026-04-29 17:35 | 36.69280 | 3.21025 | 71 ft | 11 kts | 271° |
| 2026-04-29 17:35 | 36.69278 | 3.20997 | 70 ft | 1 kts | 248° |
| 2026-04-29 17:36 | 36.69252 | 3.20968 | 67 ft | 10 kts | 213° |
| 2026-04-29 17:36 | 36.69223 | 3.20958 | 83 ft | 0 kts | 183° |
| 2026-04-29 17:37 | 36.69165 | 3.20959 | 85 ft | 7 kts | 190° |
| 2026-04-29 17:38 | 36.69149 | 3.20952 | 86 ft | 0 kts | 207° |
| 2026-04-29 17:38 | 36.69134 | 3.20937 | 84 ft | 6 kts | 224° |
| 2026-04-29 17:38 | 36.69120 | 3.20891 | 87 ft | 5 kts | 261° |
| 2026-04-29 17:38 | 36.69118 | 3.20846 | 87 ft | 5 kts | 269° |
| 2026-04-29 17:39 | 36.69118 | 3.20830 | 87 ft | 0 kts | 272° |
| 2026-04-29 17:39 | 36.69118 | 3.20828 | 87 ft | 1 kts | 271° |
| 2026-04-29 17:39 | 36.69120 | 3.20715 | 84 ft | 49 kts | 271° |
| 2026-04-29 17:40 | 36.69133 | 3.20217 | 84 ft | 121 kts | 272° |
| 2026-04-29 17:40 | 36.69162 | 3.18822 | 251 ft | 186 kts | 272° |
| 2026-04-29 17:40 | 36.69193 | 3.17135 | 1207 ft | 194 kts | 273° |
| 2026-04-29 17:40 | 36.69421 | 3.15625 | 2721 ft | 175 kts | 298° |
| 2026-04-29 17:41 | 36.70271 | 3.14559 | 3671 ft | 183 kts | 332° |
| 2026-04-29 17:41 | 36.71569 | 3.13810 | 3964 ft | 236 kts | 337° |
| 2026-04-29 17:41 | 36.73221 | 3.12931 | 4277 ft | 270 kts | 336° |
| 2026-04-29 17:41 | 36.74956 | 3.11959 | 5171 ft | 276 kts | 334° |
| 2026-04-29 17:42 | 36.76700 | 3.10935 | 6180 ft | 278 kts | 332° |
| 2026-04-29 17:42 | 36.78442 | 3.09874 | 7138 ft | 280 kts | 331° |
| 2026-04-29 17:42 | 36.80194 | 3.08781 | 8116 ft | 282 kts | 330° |
| 2026-04-29 17:42 | 36.81949 | 3.07666 | 9095 ft | 284 kts | 329° |
| 2026-04-29 17:43 | 36.83710 | 3.06534 | 10048 ft | 287 kts | 328° |
| 2026-04-29 17:43 | 36.85573 | 3.05321 | 10310 ft | 319 kts | 329° |
| 2026-04-29 17:43 | 36.87605 | 3.03987 | 10440 ft | 350 kts | 329° |
| 2026-04-29 17:43 | 36.89807 | 3.02546 | 11101 ft | 360 kts | 329° |
| 2026-04-29 17:44 | 36.92040 | 3.01089 | 12043 ft | 364 kts | 329° |
| 2026-04-29 17:44 | 36.94297 | 2.99615 | 12961 ft | 368 kts | 329° |
| 2026-04-29 17:44 | 36.96573 | 2.98125 | 13876 ft | 371 kts | 329° |
| 2026-04-29 17:44 | 36.98873 | 2.96614 | 14689 ft | 375 kts | 328° |
| 2026-04-29 17:45 | 37.01128 | 2.94931 | 15438 ft | 377 kts | 321° |
| 2026-04-29 17:45 | 37.03086 | 2.92762 | 16217 ft | 376 kts | 308° |
| 2026-04-29 17:45 | 37.04521 | 2.90048 | 16996 ft | 376 kts | 292° |
| 2026-04-29 17:45 | 37.05308 | 2.86921 | 17772 ft | 377 kts | 277° |
| 2026-04-29 17:46 | 37.05386 | 2.83642 | 18504 ft | 379 kts | 263° |
| 2026-04-29 17:46 | 37.04774 | 2.80459 | 19165 ft | 383 kts | 248° |
| 2026-04-29 17:46 | 37.03500 | 2.77522 | 19833 ft | 388 kts | 235° |
| 2026-04-29 17:46 | 37.01779 | 2.74905 | 20455 ft | 393 kts | 229° |
| 2026-04-29 17:47 | 36.99882 | 2.72409 | 21128 ft | 397 kts | 227° |
| 2026-04-29 17:47 | 36.97939 | 2.69924 | 21779 ft | 401 kts | 227° |
| 2026-04-29 17:47 | 36.95990 | 2.67407 | 22432 ft | 405 kts | 227° |
| 2026-04-29 17:47 | 36.94040 | 2.64839 | 23043 ft | 410 kts | 228° |
| 2026-04-29 17:48 | 36.92084 | 2.62224 | 23644 ft | 414 kts | 229° |
| 2026-04-29 17:48 | 36.90115 | 2.59565 | 24184 ft | 417 kts | 229° |
| 2026-04-29 17:48 | 36.88138 | 2.56884 | 24645 ft | 423 kts | 229° |
| 2026-04-29 17:48 | 36.86158 | 2.54192 | 24993 ft | 427 kts | 229° |
| 2026-04-29 17:49 | 36.84145 | 2.51457 | 25359 ft | 427 kts | 229° |
| 2026-04-29 17:49 | 36.82134 | 2.48726 | 25719 ft | 427 kts | 230° |
| 2026-04-29 17:49 | 36.80110 | 2.45981 | 25890 ft | 431 kts | 230° |
| 2026-04-29 17:49 | 36.78116 | 2.43280 | 25910 ft | 413 kts | 230° |
| 2026-04-29 17:50 | 36.76201 | 2.40692 | 25922 ft | 398 kts | 230° |
| 2026-04-29 17:50 | 36.74331 | 2.38163 | 25925 ft | 396 kts | 230° |
| 2026-04-29 17:50 | 36.72460 | 2.35630 | 25924 ft | 396 kts | 230° |
| 2026-04-29 17:50 | 36.70601 | 2.33117 | 25933 ft | 395 kts | 230° |
| 2026-04-29 17:51 | 36.68737 | 2.30600 | 25930 ft | 395 kts | 230° |
| 2026-04-29 17:51 | 36.66875 | 2.28088 | 25931 ft | 395 kts | 230° |
| 2026-04-29 17:51 | 36.65007 | 2.25570 | 25931 ft | 395 kts | 230° |
| 2026-04-29 17:51 | 36.63163 | 2.23088 | 25931 ft | 395 kts | 230° |
| 2026-04-29 17:52 | 36.61298 | 2.20579 | 25936 ft | 395 kts | 231° |
| 2026-04-29 17:52 | 36.60145 | 2.18838 | 25929 ft | 393 kts | 238° |
| 2026-04-29 17:52 | 36.58395 | 2.14888 | 25934 ft | 389 kts | 248° |
| 2026-04-29 17:52 | 36.57332 | 2.11783 | 25934 ft | 389 kts | 250° |
| 2026-04-29 17:53 | 36.56330 | 2.08661 | 25931 ft | 389 kts | 250° |
| 2026-04-29 17:53 | 36.55329 | 2.05532 | 25928 ft | 388 kts | 250° |
| 2026-04-29 17:53 | 36.54316 | 2.02409 | 25933 ft | 388 kts | 250° |
| 2026-04-29 17:53 | 36.53306 | 1.99343 | 25928 ft | 389 kts | 249° |
| 2026-04-29 17:54 | 36.52271 | 1.96236 | 25928 ft | 389 kts | 249° |
| 2026-04-29 17:54 | 36.51229 | 1.93133 | 25928 ft | 388 kts | 249° |
| 2026-04-29 17:54 | 36.50184 | 1.90034 | 25926 ft | 389 kts | 249° |
| 2026-04-29 17:54 | 36.49135 | 1.86930 | 25919 ft | 388 kts | 249° |
| 2026-04-29 17:55 | 36.48088 | 1.83838 | 25922 ft | 388 kts | 249° |
| 2026-04-29 17:55 | 36.47037 | 1.80737 | 25922 ft | 387 kts | 249° |
| 2026-04-29 17:55 | 36.45989 | 1.77649 | 25922 ft | 387 kts | 249° |
| 2026-04-29 17:55 | 36.44955 | 1.74606 | 25925 ft | 388 kts | 249° |
| 2026-04-29 17:56 | 36.43895 | 1.71487 | 25918 ft | 387 kts | 249° |
| 2026-04-29 17:56 | 36.42860 | 1.68446 | 25922 ft | 387 kts | 249° |
| 2026-04-29 17:56 | 36.41800 | 1.65335 | 25920 ft | 387 kts | 249° |
| 2026-04-29 17:56 | 36.40750 | 1.62255 | 25919 ft | 387 kts | 249° |
| 2026-04-29 17:57 | 36.39713 | 1.59215 | 25917 ft | 387 kts | 249° |
| 2026-04-29 17:57 | 36.38662 | 1.56138 | 25917 ft | 387 kts | 249° |
| 2026-04-29 17:57 | 36.37610 | 1.53062 | 25916 ft | 387 kts | 249° |
| 2026-04-29 17:57 | 36.36552 | 1.49966 | 25918 ft | 396 kts | 249° |
| 2026-04-29 17:58 | 36.35467 | 1.46770 | 25915 ft | 399 kts | 249° |
| 2026-04-29 17:58 | 36.34413 | 1.43656 | 25911 ft | 386 kts | 249° |
| 2026-04-29 17:58 | 36.33378 | 1.40585 | 25911 ft | 385 kts | 249° |
| 2026-04-29 17:58 | 36.32348 | 1.37520 | 25912 ft | 385 kts | 249° |
| 2026-04-29 17:59 | 36.31317 | 1.34449 | 25909 ft | 385 kts | 249° |
| 2026-04-29 17:59 | 36.30289 | 1.31387 | 25911 ft | 385 kts | 249° |
| 2026-04-29 17:59 | 36.29256 | 1.28313 | 25910 ft | 385 kts | 249° |
| 2026-04-29 17:59 | 36.28225 | 1.25250 | 25913 ft | 385 kts | 249° |
| 2026-04-29 18:00 | 36.27204 | 1.22219 | 25909 ft | 385 kts | 249° |
| 2026-04-29 18:00 | 36.26171 | 1.19158 | 25910 ft | 385 kts | 249° |
| 2026-04-29 18:00 | 36.25139 | 1.16100 | 25917 ft | 385 kts | 249° |
| 2026-04-29 18:00 | 36.24108 | 1.13049 | 25906 ft | 384 kts | 249° |
| 2026-04-29 18:01 | 36.23073 | 1.09990 | 25913 ft | 384 kts | 249° |
| 2026-04-29 18:01 | 36.22038 | 1.06934 | 25916 ft | 384 kts | 249° |
| 2026-04-29 18:01 | 36.21003 | 1.03880 | 25910 ft | 388 kts | 249° |
| 2026-04-29 18:01 | 36.19932 | 1.00715 | 25194 ft | 404 kts | 249° |
| 2026-04-29 18:02 | 36.18846 | 0.97518 | 24466 ft | 403 kts | 248° |
| 2026-04-29 18:02 | 36.17752 | 0.94302 | 23755 ft | 406 kts | 249° |
| 2026-04-29 18:02 | 36.16652 | 0.91070 | 23075 ft | 408 kts | 248° |
| 2026-04-29 18:02 | 36.15560 | 0.87869 | 22450 ft | 408 kts | 248° |
| 2026-04-29 18:03 | 36.14460 | 0.84645 | 21869 ft | 405 kts | 248° |
| 2026-04-29 18:03 | 36.13368 | 0.81449 | 21314 ft | 401 kts | 248° |
| 2026-04-29 18:03 | 36.12287 | 0.78287 | 20779 ft | 398 kts | 248° |
| 2026-04-29 18:03 | 36.11209 | 0.75138 | 20268 ft | 395 kts | 247° |
| 2026-04-29 18:04 | 36.10137 | 0.72011 | 19747 ft | 394 kts | 247° |
| 2026-04-29 18:04 | 36.09069 | 0.68894 | 19236 ft | 391 kts | 247° |
| 2026-04-29 18:04 | 36.08027 | 0.65859 | 18709 ft | 389 kts | 246° |
| 2026-04-29 18:04 | 36.06955 | 0.62741 | 18190 ft | 386 kts | 246° |
| 2026-04-29 18:05 | 36.05915 | 0.59716 | 17618 ft | 384 kts | 246° |
| 2026-04-29 18:05 | 36.04873 | 0.56691 | 17077 ft | 381 kts | 246° |
| 2026-04-29 18:05 | 36.03826 | 0.53684 | 16570 ft | 378 kts | 246° |
| 2026-04-29 18:05 | 36.02795 | 0.50736 | 16085 ft | 375 kts | 246° |
| 2026-04-29 18:06 | 36.01759 | 0.47768 | 15575 ft | 373 kts | 246° |
| 2026-04-29 18:06 | 36.00747 | 0.44862 | 15101 ft | 371 kts | 246° |
| 2026-04-29 18:06 | 35.99728 | 0.41928 | 14622 ft | 369 kts | 246° |
| 2026-04-29 18:06 | 35.98721 | 0.39029 | 14159 ft | 366 kts | 246° |
| 2026-04-29 18:07 | 35.97721 | 0.36148 | 13683 ft | 364 kts | 246° |
| 2026-04-29 18:07 | 35.96728 | 0.33287 | 13163 ft | 361 kts | 246° |
| 2026-04-29 18:07 | 35.95744 | 0.30454 | 12694 ft | 358 kts | 246° |
| 2026-04-29 18:07 | 35.94762 | 0.27628 | 12217 ft | 357 kts | 246° |
| 2026-04-29 18:08 | 35.93792 | 0.24840 | 11753 ft | 355 kts | 246° |
| 2026-04-29 18:08 | 35.92819 | 0.22050 | 11316 ft | 353 kts | 246° |
| 2026-04-29 18:08 | 35.91850 | 0.19269 | 11032 ft | 352 kts | 246° |
| 2026-04-29 18:08 | 35.90896 | 0.16534 | 10897 ft | 336 kts | 246° |
| 2026-04-29 18:09 | 35.89997 | 0.13979 | 10780 ft | 313 kts | 245° |
| 2026-04-29 18:09 | 35.89149 | 0.11660 | 10661 ft | 280 kts | 244° |
| 2026-04-29 18:09 | 35.88345 | 0.09500 | 10568 ft | 279 kts | 244° |
| 2026-04-29 18:09 | 35.87539 | 0.07343 | 10432 ft | 275 kts | 244° |
| 2026-04-29 18:10 | 35.86737 | 0.05195 | 10145 ft | 276 kts | 244° |
| 2026-04-29 18:10 | 35.85936 | 0.03049 | 9713 ft | 275 kts | 244° |
| 2026-04-29 18:10 | 35.85138 | 0.00909 | 9260 ft | 273 kts | 244° |
| 2026-04-29 18:10 | 35.84348 | -0.01209 | 8844 ft | 270 kts | 245° |
| 2026-04-29 18:11 | 35.83577 | -0.03275 | 8410 ft | 268 kts | 245° |
| 2026-04-29 18:11 | 35.82798 | -0.05364 | 8009 ft | 267 kts | 245° |
| 2026-04-29 18:11 | 35.82024 | -0.07437 | 7627 ft | 265 kts | 245° |
| 2026-04-29 18:11 | 35.81254 | -0.09498 | 7271 ft | 264 kts | 245° |
| 2026-04-29 18:12 | 35.80488 | -0.11550 | 6915 ft | 262 kts | 245° |
| 2026-04-29 18:12 | 35.79725 | -0.13590 | 6562 ft | 262 kts | 245° |
| 2026-04-29 18:12 | 35.78962 | -0.15630 | 6189 ft | 262 kts | 245° |
| 2026-04-29 18:12 | 35.78224 | -0.17600 | 5802 ft | 245 kts | 245° |
| 2026-04-29 18:13 | 35.77503 | -0.19523 | 5460 ft | 248 kts | 246° |
| 2026-04-29 18:13 | 35.76795 | -0.21411 | 5146 ft | 237 kts | 246° |
| 2026-04-29 18:13 | 35.76106 | -0.23246 | 4896 ft | 236 kts | 246° |
| 2026-04-29 18:13 | 35.75357 | -0.25018 | 4641 ft | 235 kts | 243° |
| 2026-04-29 18:14 | 35.74589 | -0.26748 | 4324 ft | 219 kts | 244° |
| 2026-04-29 18:14 | 35.73916 | -0.28373 | 4068 ft | 211 kts | 245° |
| 2026-04-29 18:14 | 35.73292 | -0.29994 | 3818 ft | 210 kts | 247° |
| 2026-04-29 18:14 | 35.72722 | -0.31644 | 3538 ft | 208 kts | 249° |
| 2026-04-29 18:15 | 35.72170 | -0.33275 | 3334 ft | 208 kts | 248° |
| 2026-04-29 18:15 | 35.71612 | -0.34916 | 3275 ft | 208 kts | 248° |
| 2026-04-29 18:15 | 35.71055 | -0.36558 | 3267 ft | 207 kts | 249° |
| 2026-04-29 18:15 | 35.70502 | -0.38186 | 3260 ft | 207 kts | 248° |
| 2026-04-29 18:16 | 35.69950 | -0.39814 | 3260 ft | 201 kts | 249° |
| 2026-04-29 18:16 | 35.69453 | -0.41271 | 3180 ft | 170 kts | 249° |
| 2026-04-29 18:16 | 35.69004 | -0.42599 | 3288 ft | 170 kts | 249° |
| 2026-04-29 18:16 | 35.68542 | -0.43966 | 3149 ft | 174 kts | 249° |
| 2026-04-29 18:17 | 35.68077 | -0.45340 | 2911 ft | 175 kts | 248° |
| 2026-04-29 18:17 | 35.67606 | -0.46727 | 2690 ft | 175 kts | 249° |
| 2026-04-29 18:17 | 35.67139 | -0.48105 | 2431 ft | 172 kts | 249° |
| 2026-04-29 18:17 | 35.66696 | -0.49408 | 2177 ft | 163 kts | 249° |
| 2026-04-29 18:18 | 35.66260 | -0.50689 | 1980 ft | 163 kts | 249° |
| 2026-04-29 18:18 | 35.65817 | -0.51975 | 1723 ft | 163 kts | 248° |
| 2026-04-29 18:18 | 35.65402 | -0.53266 | 1525 ft | 164 kts | 252° |
| 2026-04-29 18:18 | 35.64972 | -0.54561 | 1317 ft | 162 kts | 250° |
| 2026-04-29 18:19 | 35.64536 | -0.55841 | 1128 ft | 160 kts | 250° |
| 2026-04-29 18:19 | 35.64104 | -0.57082 | 947 ft | 160 kts | 249° |
| 2026-04-29 18:19 | 35.63667 | -0.58337 | 725 ft | 159 kts | 251° |
| 2026-04-29 18:19 | 35.63247 | -0.59600 | 513 ft | 160 kts | 248° |
| 2026-04-29 18:20 | 35.62814 | -0.60854 | 330 ft | 159 kts | 247° |
| 2026-04-29 18:20 | 35.62429 | -0.61979 | 314 ft | 125 kts | 247° |
| 2026-04-29 18:20 | 35.62147 | -0.62799 | 317 ft | 87 kts | 247° |
| 2026-04-29 18:20 | 35.61957 | -0.63355 | 315 ft | 51 kts | 247° |
| 2026-04-29 18:21 | 35.61855 | -0.63597 | 318 ft | 20 kts | 216° |
| 2026-04-29 18:21 | 35.61750 | -0.63594 | 317 ft | 9 kts | 160° |
| 2026-04-29 18:21 | 35.61714 | -0.63577 | 317 ft | 0 kts | 158° |
| 2026-04-29 18:26 | 35.61680 | -0.63560 | 318 ft | 20 kts | 157° |
| 2026-04-29 18:26 | 35.61621 | -0.63530 | 318 ft | 5 kts | 157° |
| 2026-04-29 18:26 | 35.61588 | -0.63512 | 318 ft | 6 kts | 157° |
| 2026-04-29 18:27 | 35.61547 | -0.63491 | 317 ft | 7 kts | 157° |
| 2026-04-29 18:27 | 35.61502 | -0.63468 | 317 ft | 7 kts | 157° |
| 2026-04-29 18:27 | 35.61463 | -0.63442 | 317 ft | 7 kts | 147° |
| 2026-04-29 18:27 | 35.61427 | -0.63401 | 317 ft | 8 kts | 128° |
| 2026-04-29 18:28 | 35.61405 | -0.63340 | 317 ft | 8 kts | 104° |
| 2026-04-29 18:28 | 35.61405 | -0.63266 | 317 ft | 9 kts | 78° |
| 2026-04-29 18:28 | 35.61426 | -0.63193 | 315 ft | 9 kts | 69° |
| 2026-04-29 18:28 | 35.61451 | -0.63118 | 317 ft | 10 kts | 68° |
| 2026-04-29 18:29 | 35.61480 | -0.63034 | 317 ft | 12 kts | 67° |
| 2026-04-29 18:29 | 35.61517 | -0.62927 | 316 ft | 16 kts | 67° |
| 2026-04-29 18:29 | 35.61568 | -0.62778 | 317 ft | 21 kts | 68° |
| 2026-04-29 18:29 | 35.61630 | -0.62598 | 317 ft | 22 kts | 67° |
| 2026-04-29 18:30 | 35.61687 | -0.62429 | 316 ft | 21 kts | 67° |
| 2026-04-29 18:30 | 35.61736 | -0.62272 | 316 ft | 18 kts | 66° |
| 2026-04-29 18:30 | 35.61786 | -0.62139 | 317 ft | 16 kts | 66° |
| 2026-04-29 18:30 | 35.61832 | -0.62005 | 316 ft | 22 kts | 67° |
| 2026-04-29 18:31 | 35.61917 | -0.61757 | 316 ft | 36 kts | 67° |
| 2026-04-29 18:31 | 35.62008 | -0.61491 | 317 ft | 28 kts | 67° |
| 2026-04-29 18:31 | 35.62080 | -0.61279 | 316 ft | 26 kts | 67° |
| 2026-04-29 18:31 | 35.62136 | -0.61115 | 317 ft | 16 kts | 67° |
| 2026-04-29 18:32 | 35.62148 | -0.61032 | 317 ft | 2 kts | 110° |
| 2026-04-29 18:32 | 35.62132 | -0.61014 | 317 ft | 3 kts | 138° |
| 2026-04-29 18:32 | 35.62101 | -0.60970 | 317 ft | 9 kts | 120° |
| 2026-04-29 18:33 | 35.62100 | -0.60928 | 317 ft | 2 kts | 71° |
| 2026-04-29 18:33 | 35.62127 | -0.60851 | 317 ft | 22 kts | 66° |
| 2026-04-29 18:33 | 35.62155 | -0.60766 | 317 ft | 6 kts | 67° |
| 2026-04-29 18:33 | 35.62162 | -0.60746 | 317 ft | 0 kts | 70° |
| 2026-04-29 18:34 | 35.62160 | -0.60714 | 317 ft | 13 kts | 98° |
| 2026-04-29 18:34 | 35.62149 | -0.60692 | 317 ft | 5 kts | 138° |
| 2026-04-29 18:34 | 35.62118 | -0.60667 | 317 ft | 3 kts | 121° |
| 2026-04-29 18:34 | 35.62118 | -0.60654 | 317 ft | 1 kts | 87° |
| 2026-04-29 18:35 | 35.62126 | -0.60641 | 317 ft | 1 kts | 47° |
| 2026-04-29 18:35 | 35.62132 | -0.60640 | 317 ft | 0 kts | 21° |
| 2026-04-29 18:38 | 35.66156 | -0.50993 | 317 ft | 0 kts | 249° |
| 2026-04-29 18:38 | 35.62804 | -0.60883 | 328 ft | 151 kts | 247° |
| 2026-04-29 18:39 | 35.62796 | -0.60907 | 326 ft | 158 kts | 247° |
| 2026-04-29 18:39 | 35.63065 | -0.60114 | 424 ft | 156 kts | 248° |
| 2026-04-29 18:40 | 35.62210 | -0.62616 | 315 ft | 63 kts | 247° |
| 2026-04-29 18:41 | 35.62586 | -0.61520 | 319 ft | 137 kts | 247° |
| 2026-04-29 18:42 | 35.62702 | -0.61180 | 320 ft | 143 kts | 247° |
| 2026-04-29 18:42 | 35.62687 | -0.61222 | 320 ft | 141 kts | 247° |
| 2026-04-29 18:43 | 35.63019 | -0.60249 | 413 ft | 159 kts | 248° |
| 2026-04-29 18:43 | 35.62602 | -0.61474 | 317 ft | 141 kts | 247° |
| 2026-04-29 18:44 | 35.62266 | -0.62450 | 316 ft | 104 kts | 247° |
| 2026-04-29 18:44 | 35.62032 | -0.63134 | 317 ft | 67 kts | 247° |
| 2026-04-29 18:44 | 35.61966 | -0.63326 | 316 ft | 39 kts | 247° |
| 2026-04-29 18:45 | 35.63122 | -0.59954 | 460 ft | 159 kts | 248° |
| 2026-04-29 18:45 | 35.62692 | -0.61208 | 320 ft | 150 kts | 247° |